sensor_id;sensor_type;location;lat;lon;timestamp;P1;durP1;ratioP1;P2;durP2;ratioP2
40669;SDS011;26355;45.528;9.234;2022-07-17T00:02:15;15.77;;;7.57;;
40669;SDS011;26355;45.528;9.234;2022-07-17T00:04:41;19.42;;;8.82;;
40669;SDS011;26355;45.528;9.234;2022-07-17T00:07:07;17.60;;;8.50;;
40669;SDS011;26355;45.528;9.234;2022-07-17T00:09:32;18.25;;;7.45;;
40669;SDS011;26355;45.528;9.234;2022-07-17T00:11:58;17.25;;;8.57;;
40669;SDS011;26355;45.528;9.234;2022-07-17T00:14:23;20.05;;;8.85;;
40669;SDS011;26355;45.528;9.234;2022-07-17T00:16:49;19.30;;;8.32;;
40669;SDS011;26355;45.528;9.234;2022-07-17T00:19:16;17.30;;;8.63;;
40669;SDS011;26355;45.528;9.234;2022-07-17T00:21:42;19.48;;;7.95;;
40669;SDS011;26355;45.528;9.234;2022-07-17T00:24:07;17.30;;;8.10;;
40669;SDS011;26355;45.528;9.234;2022-07-17T00:26:33;19.10;;;8.43;;
40669;SDS011;26355;45.528;9.234;2022-07-17T00:28:59;17.92;;;7.97;;
40669;SDS011;26355;45.528;9.234;2022-07-17T00:31:25;18.83;;;8.10;;
40669;SDS011;26355;45.528;9.234;2022-07-17T00:33:50;17.98;;;8.00;;
40669;SDS011;26355;45.528;9.234;2022-07-17T00:36:16;17.77;;;7.90;;
40669;SDS011;26355;45.528;9.234;2022-07-17T00:38:41;17.20;;;7.90;;
40669;SDS011;26355;45.528;9.234;2022-07-17T00:41:07;16.58;;;7.03;;
40669;SDS011;26355;45.528;9.234;2022-07-17T00:43:33;17.75;;;7.63;;
40669;SDS011;26355;45.528;9.234;2022-07-17T00:45:59;17.17;;;7.80;;
40669;SDS011;26355;45.528;9.234;2022-07-17T00:48:26;18.00;;;7.88;;
40669;SDS011;26355;45.528;9.234;2022-07-17T00:50:52;17.08;;;8.20;;
40669;SDS011;26355;45.528;9.234;2022-07-17T00:53:19;16.25;;;7.70;;
40669;SDS011;26355;45.528;9.234;2022-07-17T00:55:45;17.88;;;7.93;;
40669;SDS011;26355;45.528;9.234;2022-07-17T00:58:22;16.52;;;7.68;;
40669;SDS011;26355;45.528;9.234;2022-07-17T01:00:50;17.40;;;6.93;;
40669;SDS011;26355;45.528;9.234;2022-07-17T01:03:18;16.48;;;7.20;;
40669;SDS011;26355;45.528;9.234;2022-07-17T01:05:45;15.45;;;7.32;;
40669;SDS011;26355;45.528;9.234;2022-07-17T01:08:11;17.07;;;6.77;;
40669;SDS011;26355;45.528;9.234;2022-07-17T01:10:37;18.08;;;7.38;;
40669;SDS011;26355;45.528;9.234;2022-07-17T01:13:03;15.40;;;6.97;;
40669;SDS011;26355;45.528;9.234;2022-07-17T01:15:30;17.05;;;6.93;;
40669;SDS011;26355;45.528;9.234;2022-07-17T01:18:08;15.85;;;6.88;;
40669;SDS011;26355;45.528;9.234;2022-07-17T01:20:36;17.65;;;6.85;;
40669;SDS011;26355;45.528;9.234;2022-07-17T01:23:03;18.90;;;6.75;;
40669;SDS011;26355;45.528;9.234;2022-07-17T01:25:29;16.02;;;6.47;;
40669;SDS011;26355;45.528;9.234;2022-07-17T01:27:55;17.23;;;6.57;;
40669;SDS011;26355;45.528;9.234;2022-07-17T01:30:21;19.70;;;6.25;;
40669;SDS011;26355;45.528;9.234;2022-07-17T01:32:47;14.43;;;5.93;;
40669;SDS011;26355;45.528;9.234;2022-07-17T01:35:13;15.88;;;6.07;;
40669;SDS011;26355;45.528;9.234;2022-07-17T01:37:40;14.52;;;5.97;;
40669;SDS011;26355;45.528;9.234;2022-07-17T01:40:08;14.07;;;5.40;;
40669;SDS011;26355;45.528;9.234;2022-07-17T01:42:38;14.80;;;5.30;;
40669;SDS011;26355;45.528;9.234;2022-07-17T01:45:06;14.55;;;5.53;;
40669;SDS011;26355;45.528;9.234;2022-07-17T01:47:32;16.57;;;6.00;;
40669;SDS011;26355;45.528;9.234;2022-07-17T01:49:59;13.13;;;5.10;;
40669;SDS011;26355;45.528;9.234;2022-07-17T01:52:25;16.95;;;5.13;;
40669;SDS011;26355;45.528;9.234;2022-07-17T01:54:51;13.98;;;4.93;;
40669;SDS011;26355;45.528;9.234;2022-07-17T01:57:18;15.55;;;5.10;;
40669;SDS011;26355;45.528;9.234;2022-07-17T01:59:44;13.83;;;4.67;;
40669;SDS011;26355;45.528;9.234;2022-07-17T02:02:10;11.40;;;4.30;;
40669;SDS011;26355;45.528;9.234;2022-07-17T02:04:37;12.40;;;4.70;;
40669;SDS011;26355;45.528;9.234;2022-07-17T02:07:03;12.95;;;4.50;;
40669;SDS011;26355;45.528;9.234;2022-07-17T02:09:29;11.67;;;3.93;;
40669;SDS011;26355;45.528;9.234;2022-07-17T02:11:55;12.77;;;4.18;;
40669;SDS011;26355;45.528;9.234;2022-07-17T02:14:21;14.82;;;5.07;;
40669;SDS011;26355;45.528;9.234;2022-07-17T02:16:47;15.60;;;4.45;;
40669;SDS011;26355;45.528;9.234;2022-07-17T02:19:13;12.55;;;4.25;;
40669;SDS011;26355;45.528;9.234;2022-07-17T02:21:38;11.30;;;4.18;;
40669;SDS011;26355;45.528;9.234;2022-07-17T02:24:04;13.00;;;4.57;;
40669;SDS011;26355;45.528;9.234;2022-07-17T02:26:30;12.15;;;4.18;;
40669;SDS011;26355;45.528;9.234;2022-07-17T02:28:56;12.32;;;4.88;;
40669;SDS011;26355;45.528;9.234;2022-07-17T02:31:22;13.30;;;4.93;;
40669;SDS011;26355;45.528;9.234;2022-07-17T02:33:47;13.82;;;4.35;;
40669;SDS011;26355;45.528;9.234;2022-07-17T02:36:13;11.48;;;4.53;;
40669;SDS011;26355;45.528;9.234;2022-07-17T02:38:39;13.65;;;4.18;;
40669;SDS011;26355;45.528;9.234;2022-07-17T02:41:04;14.57;;;4.70;;
40669;SDS011;26355;45.528;9.234;2022-07-17T02:43:30;11.52;;;4.47;;
40669;SDS011;26355;45.528;9.234;2022-07-17T02:45:57;12.23;;;4.18;;
40669;SDS011;26355;45.528;9.234;2022-07-17T02:48:22;10.55;;;4.07;;
40669;SDS011;26355;45.528;9.234;2022-07-17T02:50:48;11.60;;;3.83;;
40669;SDS011;26355;45.528;9.234;2022-07-17T02:53:13;10.02;;;3.83;;
40669;SDS011;26355;45.528;9.234;2022-07-17T02:55:39;12.65;;;3.95;;
40669;SDS011;26355;45.528;9.234;2022-07-17T02:58:04;14.02;;;4.07;;
40669;SDS011;26355;45.528;9.234;2022-07-17T03:00:30;14.05;;;4.53;;
40669;SDS011;26355;45.528;9.234;2022-07-17T03:02:56;13.48;;;4.60;;
40669;SDS011;26355;45.528;9.234;2022-07-17T03:05:21;13.80;;;4.60;;
40669;SDS011;26355;45.528;9.234;2022-07-17T03:07:47;14.32;;;4.32;;
40669;SDS011;26355;45.528;9.234;2022-07-17T03:10:13;11.10;;;3.88;;
40669;SDS011;26355;45.528;9.234;2022-07-17T03:12:39;10.82;;;4.07;;
40669;SDS011;26355;45.528;9.234;2022-07-17T03:15:06;13.27;;;4.00;;
40669;SDS011;26355;45.528;9.234;2022-07-17T03:17:32;12.55;;;4.03;;
40669;SDS011;26355;45.528;9.234;2022-07-17T03:19:58;10.55;;;4.18;;
40669;SDS011;26355;45.528;9.234;2022-07-17T03:22:24;12.95;;;4.13;;
40669;SDS011;26355;45.528;9.234;2022-07-17T03:24:50;12.57;;;4.55;;
40669;SDS011;26355;45.528;9.234;2022-07-17T03:27:15;11.25;;;3.95;;
40669;SDS011;26355;45.528;9.234;2022-07-17T03:29:42;12.30;;;4.57;;
40669;SDS011;26355;45.528;9.234;2022-07-17T03:32:08;14.85;;;4.55;;
40669;SDS011;26355;45.528;9.234;2022-07-17T03:34:33;11.70;;;4.28;;
40669;SDS011;26355;45.528;9.234;2022-07-17T03:36:59;15.07;;;5.13;;
40669;SDS011;26355;45.528;9.234;2022-07-17T03:39:25;16.10;;;5.13;;
40669;SDS011;26355;45.528;9.234;2022-07-17T03:41:50;12.50;;;4.55;;
40669;SDS011;26355;45.528;9.234;2022-07-17T03:44:16;15.55;;;4.55;;
40669;SDS011;26355;45.528;9.234;2022-07-17T03:46:42;15.40;;;4.65;;
40669;SDS011;26355;45.528;9.234;2022-07-17T03:49:07;15.15;;;5.05;;
40669;SDS011;26355;45.528;9.234;2022-07-17T03:51:35;14.40;;;4.53;;
40669;SDS011;26355;45.528;9.234;2022-07-17T03:54:01;12.88;;;4.97;;
40669;SDS011;26355;45.528;9.234;2022-07-17T03:56:26;13.75;;;5.18;;
40669;SDS011;26355;45.528;9.234;2022-07-17T03:58:52;12.95;;;5.10;;
40669;SDS011;26355;45.528;9.234;2022-07-17T04:01:17;12.27;;;5.07;;
40669;SDS011;26355;45.528;9.234;2022-07-17T04:03:43;13.70;;;4.70;;
40669;SDS011;26355;45.528;9.234;2022-07-17T04:06:09;13.20;;;5.03;;
40669;SDS011;26355;45.528;9.234;2022-07-17T04:08:34;13.85;;;4.75;;
40669;SDS011;26355;45.528;9.234;2022-07-17T04:11:00;13.40;;;4.57;;
40669;SDS011;26355;45.528;9.234;2022-07-17T04:13:26;12.60;;;4.70;;
40669;SDS011;26355;45.528;9.234;2022-07-17T04:15:51;14.52;;;4.90;;
40669;SDS011;26355;45.528;9.234;2022-07-17T04:18:26;11.95;;;4.53;;
40669;SDS011;26355;45.528;9.234;2022-07-17T04:20:56;13.35;;;4.55;;
40669;SDS011;26355;45.528;9.234;2022-07-17T04:23:24;14.02;;;4.63;;
40669;SDS011;26355;45.528;9.234;2022-07-17T04:25:51;13.02;;;4.25;;
40669;SDS011;26355;45.528;9.234;2022-07-17T04:28:17;12.68;;;4.45;;
40669;SDS011;26355;45.528;9.234;2022-07-17T04:30:43;12.68;;;3.85;;
40669;SDS011;26355;45.528;9.234;2022-07-17T04:33:09;12.45;;;3.83;;
40669;SDS011;26355;45.528;9.234;2022-07-17T04:35:35;13.07;;;4.60;;
40669;SDS011;26355;45.528;9.234;2022-07-17T04:38:03;13.15;;;4.30;;
40669;SDS011;26355;45.528;9.234;2022-07-17T04:40:30;12.82;;;4.40;;
40669;SDS011;26355;45.528;9.234;2022-07-17T04:42:56;10.30;;;4.37;;
40669;SDS011;26355;45.528;9.234;2022-07-17T04:45:22;10.20;;;3.90;;
40669;SDS011;26355;45.528;9.234;2022-07-17T04:47:48;13.07;;;4.30;;
40669;SDS011;26355;45.528;9.234;2022-07-17T04:50:13;10.75;;;4.18;;
40669;SDS011;26355;45.528;9.234;2022-07-17T04:52:39;12.82;;;5.03;;
40669;SDS011;26355;45.528;9.234;2022-07-17T04:55:05;11.82;;;4.22;;
40669;SDS011;26355;45.528;9.234;2022-07-17T04:57:31;11.88;;;4.50;;
40669;SDS011;26355;45.528;9.234;2022-07-17T04:59:57;13.63;;;4.60;;
40669;SDS011;26355;45.528;9.234;2022-07-17T05:02:22;11.95;;;4.63;;
40669;SDS011;26355;45.528;9.234;2022-07-17T05:04:48;14.63;;;5.18;;
40669;SDS011;26355;45.528;9.234;2022-07-17T05:07:14;16.30;;;5.43;;
40669;SDS011;26355;45.528;9.234;2022-07-17T05:09:40;15.52;;;5.82;;
40669;SDS011;26355;45.528;9.234;2022-07-17T05:12:06;13.40;;;5.40;;
40669;SDS011;26355;45.528;9.234;2022-07-17T05:14:32;14.63;;;5.28;;
40669;SDS011;26355;45.528;9.234;2022-07-17T05:16:57;15.75;;;6.07;;
40669;SDS011;26355;45.528;9.234;2022-07-17T05:19:23;16.33;;;5.82;;
40669;SDS011;26355;45.528;9.234;2022-07-17T05:21:49;14.75;;;5.82;;
40669;SDS011;26355;45.528;9.234;2022-07-17T05:24:15;15.57;;;6.43;;
40669;SDS011;26355;45.528;9.234;2022-07-17T05:26:41;16.45;;;6.70;;
40669;SDS011;26355;45.528;9.234;2022-07-17T05:29:07;14.80;;;6.32;;
40669;SDS011;26355;45.528;9.234;2022-07-17T05:31:33;15.45;;;6.38;;
40669;SDS011;26355;45.528;9.234;2022-07-17T05:33:58;15.32;;;7.00;;
40669;SDS011;26355;45.528;9.234;2022-07-17T05:36:24;20.63;;;7.78;;
40669;SDS011;26355;45.528;9.234;2022-07-17T05:38:49;17.88;;;7.38;;
40669;SDS011;26355;45.528;9.234;2022-07-17T05:41:15;15.07;;;7.10;;
40669;SDS011;26355;45.528;9.234;2022-07-17T05:43:41;18.88;;;7.47;;
40669;SDS011;26355;45.528;9.234;2022-07-17T05:46:06;19.75;;;7.32;;
40669;SDS011;26355;45.528;9.234;2022-07-17T05:48:32;17.35;;;6.95;;
40669;SDS011;26355;45.528;9.234;2022-07-17T05:50:57;17.02;;;6.70;;
40669;SDS011;26355;45.528;9.234;2022-07-17T05:53:23;17.08;;;7.30;;
40669;SDS011;26355;45.528;9.234;2022-07-17T05:55:49;19.05;;;7.43;;
40669;SDS011;26355;45.528;9.234;2022-07-17T05:58:15;18.00;;;7.22;;
40669;SDS011;26355;45.528;9.234;2022-07-17T06:00:41;17.05;;;7.82;;
40669;SDS011;26355;45.528;9.234;2022-07-17T06:03:07;16.63;;;8.20;;
40669;SDS011;26355;45.528;9.234;2022-07-17T06:05:33;15.75;;;7.07;;
40669;SDS011;26355;45.528;9.234;2022-07-17T06:07:59;16.90;;;8.57;;
40669;SDS011;26355;45.528;9.234;2022-07-17T06:10:25;15.25;;;6.97;;
40669;SDS011;26355;45.528;9.234;2022-07-17T06:15:21;15.32;;;6.85;;
40669;SDS011;26355;45.528;9.234;2022-07-17T06:17:47;15.63;;;7.50;;
40669;SDS011;26355;45.528;9.234;2022-07-17T06:20:13;15.05;;;6.93;;
40669;SDS011;26355;45.528;9.234;2022-07-17T06:22:40;17.67;;;6.37;;
40669;SDS011;26355;45.528;9.234;2022-07-17T06:25:06;15.37;;;6.33;;
40669;SDS011;26355;45.528;9.234;2022-07-17T06:27:32;15.80;;;7.63;;
40669;SDS011;26355;45.528;9.234;2022-07-17T06:29:58;16.40;;;7.18;;
40669;SDS011;26355;45.528;9.234;2022-07-17T06:32:24;15.65;;;6.90;;
40669;SDS011;26355;45.528;9.234;2022-07-17T06:34:50;16.35;;;7.22;;
40669;SDS011;26355;45.528;9.234;2022-07-17T06:37:15;14.18;;;6.22;;
40669;SDS011;26355;45.528;9.234;2022-07-17T06:39:41;16.00;;;7.18;;
40669;SDS011;26355;45.528;9.234;2022-07-17T06:42:07;15.60;;;6.53;;
40669;SDS011;26355;45.528;9.234;2022-07-17T06:44:32;17.63;;;7.25;;
40669;SDS011;26355;45.528;9.234;2022-07-17T06:46:59;17.23;;;6.22;;
40669;SDS011;26355;45.528;9.234;2022-07-17T06:49:25;15.77;;;7.32;;
40669;SDS011;26355;45.528;9.234;2022-07-17T06:51:50;15.68;;;6.90;;
40669;SDS011;26355;45.528;9.234;2022-07-17T06:54:16;15.35;;;6.65;;
40669;SDS011;26355;45.528;9.234;2022-07-17T06:56:42;14.45;;;6.43;;
40669;SDS011;26355;45.528;9.234;2022-07-17T06:59:08;14.27;;;5.95;;
40669;SDS011;26355;45.528;9.234;2022-07-17T07:01:34;16.20;;;6.30;;
40669;SDS011;26355;45.528;9.234;2022-07-17T07:04:03;14.68;;;5.68;;
40669;SDS011;26355;45.528;9.234;2022-07-17T07:06:29;12.75;;;5.32;;
40669;SDS011;26355;45.528;9.234;2022-07-17T07:08:55;13.73;;;5.78;;
40669;SDS011;26355;45.528;9.234;2022-07-17T07:11:22;16.73;;;5.72;;
40669;SDS011;26355;45.528;9.234;2022-07-17T07:13:48;16.75;;;6.38;;
40669;SDS011;26355;45.528;9.234;2022-07-17T07:16:14;17.13;;;5.88;;
40669;SDS011;26355;45.528;9.234;2022-07-17T07:18:40;14.90;;;6.40;;
40669;SDS011;26355;45.528;9.234;2022-07-17T07:21:05;14.40;;;5.70;;
40669;SDS011;26355;45.528;9.234;2022-07-17T07:23:31;13.32;;;5.32;;
40669;SDS011;26355;45.528;9.234;2022-07-17T07:25:57;14.73;;;5.43;;
40669;SDS011;26355;45.528;9.234;2022-07-17T07:28:22;14.93;;;5.60;;
40669;SDS011;26355;45.528;9.234;2022-07-17T07:30:48;12.65;;;5.57;;
40669;SDS011;26355;45.528;9.234;2022-07-17T07:33:14;14.82;;;5.85;;
40669;SDS011;26355;45.528;9.234;2022-07-17T07:38:07;11.38;;;4.68;;
40669;SDS011;26355;45.528;9.234;2022-07-17T07:40:33;15.35;;;5.45;;
40669;SDS011;26355;45.528;9.234;2022-07-17T07:42:58;15.27;;;5.28;;
40669;SDS011;26355;45.528;9.234;2022-07-17T07:45:24;14.65;;;5.88;;
40669;SDS011;26355;45.528;9.234;2022-07-17T07:47:50;14.27;;;5.47;;
40669;SDS011;26355;45.528;9.234;2022-07-17T07:50:16;14.60;;;5.10;;
40669;SDS011;26355;45.528;9.234;2022-07-17T07:52:43;12.15;;;4.45;;
40669;SDS011;26355;45.528;9.234;2022-07-17T07:55:09;10.93;;;4.18;;
40669;SDS011;26355;45.528;9.234;2022-07-17T07:57:36;14.55;;;5.07;;
40669;SDS011;26355;45.528;9.234;2022-07-17T08:00:06;14.30;;;4.63;;
40669;SDS011;26355;45.528;9.234;2022-07-17T08:02:33;12.20;;;4.68;;
40669;SDS011;26355;45.528;9.234;2022-07-17T08:04:59;11.70;;;4.03;;
40669;SDS011;26355;45.528;9.234;2022-07-17T08:07:25;11.98;;;4.28;;
40669;SDS011;26355;45.528;9.234;2022-07-17T08:09:51;12.32;;;4.05;;
40669;SDS011;26355;45.528;9.234;2022-07-17T08:12:17;11.23;;;3.70;;
40669;SDS011;26355;45.528;9.234;2022-07-17T08:14:43;10.60;;;4.03;;
40669;SDS011;26355;45.528;9.234;2022-07-17T08:17:08;10.48;;;3.70;;
40669;SDS011;26355;45.528;9.234;2022-07-17T08:19:34;13.27;;;4.10;;
40669;SDS011;26355;45.528;9.234;2022-07-17T08:22:00;11.10;;;3.72;;
40669;SDS011;26355;45.528;9.234;2022-07-17T08:24:25;14.02;;;3.88;;
40669;SDS011;26355;45.528;9.234;2022-07-17T08:26:51;11.27;;;4.05;;
40669;SDS011;26355;45.528;9.234;2022-07-17T08:29:17;9.18;;;3.55;;
40669;SDS011;26355;45.528;9.234;2022-07-17T08:31:42;12.10;;;3.78;;
40669;SDS011;26355;45.528;9.234;2022-07-17T08:34:08;9.23;;;3.78;;
40669;SDS011;26355;45.528;9.234;2022-07-17T08:36:37;13.90;;;4.07;;
40669;SDS011;26355;45.528;9.234;2022-07-17T08:39:02;9.38;;;3.60;;
40669;SDS011;26355;45.528;9.234;2022-07-17T08:41:28;11.65;;;3.33;;
40669;SDS011;26355;45.528;9.234;2022-07-17T08:43:54;13.30;;;3.87;;
40669;SDS011;26355;45.528;9.234;2022-07-17T08:46:24;12.05;;;3.65;;
40669;SDS011;26355;45.528;9.234;2022-07-17T08:48:53;12.15;;;3.75;;
40669;SDS011;26355;45.528;9.234;2022-07-17T08:51:23;12.50;;;3.75;;
40669;SDS011;26355;45.528;9.234;2022-07-17T08:53:50;10.63;;;3.45;;
40669;SDS011;26355;45.528;9.234;2022-07-17T08:56:17;9.73;;;3.38;;
40669;SDS011;26355;45.528;9.234;2022-07-17T08:58:43;11.23;;;4.00;;
40669;SDS011;26355;45.528;9.234;2022-07-17T09:01:09;10.63;;;3.70;;
40669;SDS011;26355;45.528;9.234;2022-07-17T09:03:34;11.85;;;3.78;;
40669;SDS011;26355;45.528;9.234;2022-07-17T09:06:01;10.20;;;3.50;;
40669;SDS011;26355;45.528;9.234;2022-07-17T09:08:27;12.73;;;4.07;;
40669;SDS011;26355;45.528;9.234;2022-07-17T09:10:57;10.65;;;3.53;;
40669;SDS011;26355;45.528;9.234;2022-07-17T09:13:29;11.45;;;3.63;;
40669;SDS011;26355;45.528;9.234;2022-07-17T09:16:06;12.68;;;3.95;;
40669;SDS011;26355;45.528;9.234;2022-07-17T09:19:08;11.40;;;3.45;;
40669;SDS011;26355;45.528;9.234;2022-07-17T09:21:27;10.25;;;4.03;;
40669;SDS011;26355;45.528;9.234;2022-07-17T09:24:04;13.45;;;3.85;;
40669;SDS011;26355;45.528;9.234;2022-07-17T09:26:32;12.25;;;3.33;;
40669;SDS011;26355;45.528;9.234;2022-07-17T09:29:02;10.35;;;3.85;;
40669;SDS011;26355;45.528;9.234;2022-07-17T09:31:29;12.45;;;3.97;;
40669;SDS011;26355;45.528;9.234;2022-07-17T09:33:56;11.55;;;3.30;;
40669;SDS011;26355;45.528;9.234;2022-07-17T09:36:23;8.98;;;3.97;;
40669;SDS011;26355;45.528;9.234;2022-07-17T09:38:52;11.77;;;3.95;;
40669;SDS011;26355;45.528;9.234;2022-07-17T09:41:20;15.57;;;3.90;;
40669;SDS011;26355;45.528;9.234;2022-07-17T09:48:50;10.07;;;3.83;;
40669;SDS011;26355;45.528;9.234;2022-07-17T09:51:17;11.98;;;3.78;;
40669;SDS011;26355;45.528;9.234;2022-07-17T09:53:46;12.13;;;3.90;;
40669;SDS011;26355;45.528;9.234;2022-07-17T09:56:14;9.25;;;3.55;;
40669;SDS011;26355;45.528;9.234;2022-07-17T09:58:42;10.27;;;3.83;;
40669;SDS011;26355;45.528;9.234;2022-07-17T10:01:10;12.05;;;4.32;;
40669;SDS011;26355;45.528;9.234;2022-07-17T10:03:38;11.52;;;3.83;;
40669;SDS011;26355;45.528;9.234;2022-07-17T10:06:04;12.17;;;4.07;;
40669;SDS011;26355;45.528;9.234;2022-07-17T10:08:30;12.40;;;4.10;;
40669;SDS011;26355;45.528;9.234;2022-07-17T10:10:57;11.13;;;3.75;;
40669;SDS011;26355;45.528;9.234;2022-07-17T10:13:23;12.63;;;4.00;;
40669;SDS011;26355;45.528;9.234;2022-07-17T10:15:50;11.90;;;3.88;;
40669;SDS011;26355;45.528;9.234;2022-07-17T10:18:16;12.90;;;3.95;;
40669;SDS011;26355;45.528;9.234;2022-07-17T10:20:41;13.70;;;4.05;;
40669;SDS011;26355;45.528;9.234;2022-07-17T10:23:13;13.63;;;4.20;;
40669;SDS011;26355;45.528;9.234;2022-07-17T10:25:39;12.32;;;3.70;;
40669;SDS011;26355;45.528;9.234;2022-07-17T10:28:05;11.35;;;4.05;;
40669;SDS011;26355;45.528;9.234;2022-07-17T10:30:32;10.93;;;3.90;;
40669;SDS011;26355;45.528;9.234;2022-07-17T10:33:00;10.25;;;3.95;;
40669;SDS011;26355;45.528;9.234;2022-07-17T10:35:29;12.90;;;4.10;;
40669;SDS011;26355;45.528;9.234;2022-07-17T10:38:11;12.60;;;4.10;;
40669;SDS011;26355;45.528;9.234;2022-07-17T10:40:38;12.43;;;4.38;;
40669;SDS011;26355;45.528;9.234;2022-07-17T10:43:04;13.05;;;4.07;;
40669;SDS011;26355;45.528;9.234;2022-07-17T10:45:35;14.85;;;4.45;;
40669;SDS011;26355;45.528;9.234;2022-07-17T10:53:30;11.77;;;4.00;;
40669;SDS011;26355;45.528;9.234;2022-07-17T10:56:01;10.13;;;4.00;;
40669;SDS011;26355;45.528;9.234;2022-07-17T10:58:29;13.13;;;3.78;;
40669;SDS011;26355;45.528;9.234;2022-07-17T11:11:37;12.85;;;4.80;;
40669;SDS011;26355;45.528;9.234;2022-07-17T11:14:46;14.20;;;4.80;;
40669;SDS011;26355;45.528;9.234;2022-07-17T11:17:00;13.15;;;4.93;;
40669;SDS011;26355;45.528;9.234;2022-07-17T11:21:57;13.00;;;4.75;;
40669;SDS011;26355;45.528;9.234;2022-07-17T11:24:42;11.80;;;4.55;;
40669;SDS011;26355;45.528;9.234;2022-07-17T11:27:12;12.48;;;4.18;;
40669;SDS011;26355;45.528;9.234;2022-07-17T11:29:48;11.57;;;4.50;;
40669;SDS011;26355;45.528;9.234;2022-07-17T11:32:16;12.32;;;4.28;;
40669;SDS011;26355;45.528;9.234;2022-07-17T11:34:42;14.10;;;4.25;;
40669;SDS011;26355;45.528;9.234;2022-07-17T11:37:08;13.90;;;4.93;;
40669;SDS011;26355;45.528;9.234;2022-07-17T11:39:41;12.82;;;4.90;;
40669;SDS011;26355;45.528;9.234;2022-07-17T11:42:08;12.88;;;4.75;;
40669;SDS011;26355;45.528;9.234;2022-07-17T11:44:35;13.65;;;4.20;;
40669;SDS011;26355;45.528;9.234;2022-07-17T11:47:02;11.73;;;4.30;;
40669;SDS011;26355;45.528;9.234;2022-07-17T11:49:29;10.95;;;4.15;;
40669;SDS011;26355;45.528;9.234;2022-07-17T11:51:56;13.27;;;4.55;;
40669;SDS011;26355;45.528;9.234;2022-07-17T11:54:23;12.98;;;5.13;;
40669;SDS011;26355;45.528;9.234;2022-07-17T11:56:54;10.98;;;4.60;;
40669;SDS011;26355;45.528;9.234;2022-07-17T11:59:27;10.13;;;4.22;;
40669;SDS011;26355;45.528;9.234;2022-07-17T12:01:54;12.10;;;4.30;;
40669;SDS011;26355;45.528;9.234;2022-07-17T12:04:20;10.77;;;4.53;;
40669;SDS011;26355;45.528;9.234;2022-07-17T12:06:46;13.50;;;4.07;;
40669;SDS011;26355;45.528;9.234;2022-07-17T12:09:27;13.07;;;4.35;;
40669;SDS011;26355;45.528;9.234;2022-07-17T12:12:00;13.65;;;4.10;;
40669;SDS011;26355;45.528;9.234;2022-07-17T12:16:52;12.38;;;4.60;;
40669;SDS011;26355;45.528;9.234;2022-07-17T12:19:23;11.07;;;4.45;;
40669;SDS011;26355;45.528;9.234;2022-07-17T12:24:29;12.65;;;4.55;;
40669;SDS011;26355;45.528;9.234;2022-07-17T12:26:56;11.65;;;4.03;;
40669;SDS011;26355;45.528;9.234;2022-07-17T12:29:23;12.45;;;4.38;;
40669;SDS011;26355;45.528;9.234;2022-07-17T12:31:59;11.40;;;4.05;;
40669;SDS011;26355;45.528;9.234;2022-07-17T12:34:28;12.05;;;4.15;;
40669;SDS011;26355;45.528;9.234;2022-07-17T12:36:54;8.10;;;3.40;;
40669;SDS011;26355;45.528;9.234;2022-07-17T12:39:20;8.87;;;3.90;;
40669;SDS011;26355;45.528;9.234;2022-07-17T12:41:45;12.63;;;4.10;;
40669;SDS011;26355;45.528;9.234;2022-07-17T12:44:11;13.23;;;4.60;;
40669;SDS011;26355;45.528;9.234;2022-07-17T12:46:37;10.20;;;4.00;;
40669;SDS011;26355;45.528;9.234;2022-07-17T12:51:29;11.40;;;4.27;;
40669;SDS011;26355;45.528;9.234;2022-07-17T12:53:56;12.20;;;4.22;;
40669;SDS011;26355;45.528;9.234;2022-07-17T12:56:22;10.97;;;4.23;;
40669;SDS011;26355;45.528;9.234;2022-07-17T12:58:47;10.13;;;4.17;;
40669;SDS011;26355;45.528;9.234;2022-07-17T13:01:13;10.60;;;3.97;;
40669;SDS011;26355;45.528;9.234;2022-07-17T13:03:40;11.15;;;3.70;;
40669;SDS011;26355;45.528;9.234;2022-07-17T13:06:05;10.73;;;4.00;;
40669;SDS011;26355;45.528;9.234;2022-07-17T13:08:31;11.57;;;4.30;;
40669;SDS011;26355;45.528;9.234;2022-07-17T13:10:58;11.23;;;3.70;;
40669;SDS011;26355;45.528;9.234;2022-07-17T13:13:24;11.00;;;4.10;;
40669;SDS011;26355;45.528;9.234;2022-07-17T13:15:50;10.60;;;4.00;;
40669;SDS011;26355;45.528;9.234;2022-07-17T13:18:15;9.10;;;4.03;;
40669;SDS011;26355;45.528;9.234;2022-07-17T13:20:41;12.77;;;4.40;;
40669;SDS011;26355;45.528;9.234;2022-07-17T13:23:07;13.57;;;4.40;;
40669;SDS011;26355;45.528;9.234;2022-07-17T13:25:32;11.70;;;3.80;;
40669;SDS011;26355;45.528;9.234;2022-07-17T13:27:58;9.97;;;4.17;;
40669;SDS011;26355;45.528;9.234;2022-07-17T13:30:24;9.40;;;3.63;;
40669;SDS011;26355;45.528;9.234;2022-07-17T13:32:50;12.50;;;4.33;;
40669;SDS011;26355;45.528;9.234;2022-07-17T13:35:15;11.23;;;4.63;;
40669;SDS011;26355;45.528;9.234;2022-07-17T13:37:43;10.32;;;4.25;;
40669;SDS011;26355;45.528;9.234;2022-07-17T13:40:09;11.32;;;4.63;;
40669;SDS011;26355;45.528;9.234;2022-07-17T13:42:35;12.63;;;4.25;;
40669;SDS011;26355;45.528;9.234;2022-07-17T13:45:01;9.93;;;3.90;;
40669;SDS011;26355;45.528;9.234;2022-07-17T13:47:28;11.80;;;3.70;;
40669;SDS011;26355;45.528;9.234;2022-07-17T13:49:54;7.43;;;3.47;;
40669;SDS011;26355;45.528;9.234;2022-07-17T13:52:19;10.50;;;4.00;;
40669;SDS011;26355;45.528;9.234;2022-07-17T13:54:45;13.80;;;4.30;;
40669;SDS011;26355;45.528;9.234;2022-07-17T13:57:11;10.33;;;3.80;;
40669;SDS011;26355;45.528;9.234;2022-07-17T13:59:36;11.50;;;3.90;;
40669;SDS011;26355;45.528;9.234;2022-07-17T14:02:02;11.30;;;4.23;;
40669;SDS011;26355;45.528;9.234;2022-07-17T14:04:28;10.13;;;3.77;;
40669;SDS011;26355;45.528;9.234;2022-07-17T14:06:53;12.07;;;4.03;;
40669;SDS011;26355;45.528;9.234;2022-07-17T14:09:19;10.53;;;3.97;;
40669;SDS011;26355;45.528;9.234;2022-07-17T14:11:45;10.53;;;3.80;;
40669;SDS011;26355;45.528;9.234;2022-07-17T14:14:10;9.83;;;3.93;;
40669;SDS011;26355;45.528;9.234;2022-07-17T14:16:36;13.00;;;4.40;;
40669;SDS011;26355;45.528;9.234;2022-07-17T14:19:02;9.77;;;4.03;;
40669;SDS011;26355;45.528;9.234;2022-07-17T14:21:32;9.73;;;3.83;;
40669;SDS011;26355;45.528;9.234;2022-07-17T14:23:59;12.52;;;4.35;;
40669;SDS011;26355;45.528;9.234;2022-07-17T14:26:25;11.97;;;4.40;;
40669;SDS011;26355;45.528;9.234;2022-07-17T14:28:51;10.13;;;4.13;;
40669;SDS011;26355;45.528;9.234;2022-07-17T14:31:16;9.30;;;4.03;;
40669;SDS011;26355;45.528;9.234;2022-07-17T14:33:42;13.27;;;4.60;;
40669;SDS011;26355;45.528;9.234;2022-07-17T14:36:09;14.55;;;4.50;;
40669;SDS011;26355;45.528;9.234;2022-07-17T14:38:35;10.52;;;3.72;;
40669;SDS011;26355;45.528;9.234;2022-07-17T14:41:01;13.17;;;4.10;;
40669;SDS011;26355;45.528;9.234;2022-07-17T14:43:27;10.93;;;3.90;;
40669;SDS011;26355;45.528;9.234;2022-07-17T14:45:53;12.43;;;4.75;;
40669;SDS011;26355;45.528;9.234;2022-07-17T14:48:19;11.27;;;4.70;;
40669;SDS011;26355;45.528;9.234;2022-07-17T14:50:44;15.07;;;6.17;;
40669;SDS011;26355;45.528;9.234;2022-07-17T14:53:10;15.23;;;5.63;;
40669;SDS011;26355;45.528;9.234;2022-07-17T14:55:36;11.03;;;4.63;;
40669;SDS011;26355;45.528;9.234;2022-07-17T14:58:01;13.47;;;4.80;;
40669;SDS011;26355;45.528;9.234;2022-07-17T15:00:27;11.67;;;4.43;;
40669;SDS011;26355;45.528;9.234;2022-07-17T15:02:54;11.45;;;4.32;;
40669;SDS011;26355;45.528;9.234;2022-07-17T15:05:20;12.53;;;4.27;;
40669;SDS011;26355;45.528;9.234;2022-07-17T15:07:45;12.57;;;4.33;;
40669;SDS011;26355;45.528;9.234;2022-07-17T15:10:11;12.43;;;4.50;;